Time;durP1;ratioP1;P1;durP2;ratioP2;P2;SDS_P1;SDS_P2;PMS_P1;PMS_P2;Temp;Humidity;BMP_temperature;BMP_pressure;BME280_temperature;BME280_humidity;BME280_pressure;Samples;Min_cycle;Max_cycle;Signal;HPM_P1;HPM_P2
2021/04/14 00:01:33;;;;;;;0.08;0.08;;;15.30;59.60;;;;;;4213337;28;20051;-42
2021/04/14 00:03:55;;;;;;;3.10;0.55;;;15.40;59.60;;;;;;4225402;28;20418;-42
2021/04/14 00:06:19;;;;;;;0.00;0.00;;;15.30;59.60;;;;;;4213407;28;20050;-42
2021/04/14 00:08:40;;;;;;;0.03;0.03;;;15.30;59.70;;;;;;4226089;28;20047;-42
2021/04/14 00:11:03;;;;;;;0.00;0.00;;;15.30;59.80;;;;;;4198013;28;20446;-42
2021/04/14 00:13:33;;;;;;;0.43;0.43;;;15.20;59.90;;;;;;4209567;28;20078;-43
2021/04/14 00:15:58;;;;;;;0.00;0.00;;;15.20;60.10;;;;;;4191932;28;20051;-42
2021/04/14 00:18:20;;;;;;;0.00;0.00;;;15.20;60.10;;;;;;4193942;28;20487;-43
2021/04/14 00:20:41;;;;;;;0.00;0.00;;;15.20;60.10;;;;;;4215827;27;20043;-42
2021/04/14 00:23:02;;;;;;;;;;;15.20;60.10;;;;;;4243206;27;20092;-50
2021/04/14 00:25:26;;;;;;;0.00;0.00;;;15.20;60.20;;;;;;4243158;27;20399;-43
2021/04/14 00:27:47;;;;;;;0.00;0.00;;;15.10;60.20;;;;;;4242935;27;20047;-49
2021/04/14 00:30:10;;;;;;;0.00;0.00;;;15.10;60.30;;;;;;4238971;27;20050;-47
2021/04/14 00:32:31;;;;;;;0.00;0.00;;;15.10;60.50;;;;;;4192972;28;20127;-46
2021/04/14 00:34:52;;;;;;;;;;;15.20;60.30;;;;;;4210062;28;20063;-47
2021/04/14 00:37:13;;;;;;;0.00;0.00;;;15.30;59.90;;;;;;4207956;28;20019;-46
2021/04/14 00:39:34;;;;;;;0.00;0.00;;;15.40;59.60;;;;;;4209774;28;20105;-43
2021/04/14 00:41:56;;;;;;;0.00;0.00;;;15.50;59.50;;;;;;4222280;28;20043;-45
2021/04/14 00:44:18;;;;;;;0.00;0.00;;;15.70;58.90;;;;;;4226267;27;20344;-50
2021/04/14 00:46:40;;;;;;;0.10;0.10;;;15.90;58.40;;;;;;4217134;27;20422;-45
2021/04/14 00:49:01;;;;;;;0.00;0.00;;;16.00;58.00;;;;;;4209667;28;20060;-46
2021/04/14 00:51:23;;;;;;;0.30;0.30;;;16.00;57.90;;;;;;4196830;28;20044;-46
2021/04/14 00:53:46;;;;;;;0.00;0.00;;;16.00;57.90;;;;;;4196064;28;20098;-46
2021/04/14 00:56:07;;;;;;;;;;;15.90;58.00;;;;;;4226251;28;20485;-49
2021/04/14 00:58:28;;;;;;;0.10;0.10;;;15.80;58.10;;;;;;4225368;28;19923;-47
2021/04/14 01:00:51;;;;;;;0.00;0.00;;;15.70;58.20;;;;;;4211173;28;20093;-44
2021/04/14 01:03:16;;;;;;;0.00;0.00;;;15.80;58.20;;;;;;4225481;28;20050;-43
2021/04/14 01:05:38;;;;;;;0.00;0.00;;;15.70;58.20;;;;;;4224510;28;20409;-43
2021/04/14 01:08:01;;;;;;;0.00;0.00;;;15.70;58.20;;;;;;4225283;28;20051;-43
2021/04/14 01:10:23;;;;;;;0.38;0.38;;;15.60;58.30;;;;;;4225592;28;20048;-43
2021/04/14 01:12:45;;;;;;;2.67;0.22;;;15.60;58.50;;;;;;4210040;28;20101;-46
2021/04/14 01:15:08;;;;;;;0.00;0.00;;;15.60;58.70;;;;;;4223077;27;20067;-43
2021/04/14 01:17:29;;;;;;;0.00;0.00;;;15.70;58.40;;;;;;4191599;28;20044;-43
2021/04/14 01:19:51;;;;;;;0.10;0.10;;;15.80;58.10;;;;;;4193327;28;20139;-42
2021/04/14 01:22:13;;;;;;;0.00;0.00;;;15.90;57.80;;;;;;4209008;28;20097;-43
2021/04/14 01:24:34;;;;;;;0.00;0.00;;;15.90;57.70;;;;;;4208954;28;20056;-43
2021/04/14 01:26:57;;;;;;;4.00;2.40;;;15.90;57.60;;;;;;4190903;28;20049;-44
2021/04/14 01:29:19;;;;;;;0.05;0.05;;;16.00;57.60;;;;;;4202528;28;20044;-44
2021/04/14 01:31:40;;;;;;;0.20;0.20;;;15.90;57.60;;;;;;4208402;28;20054;-43
2021/04/14 01:34:02;;;;;;;;;;;15.90;57.60;;;;;;4208540;28;20055;-43
2021/04/14 01:36:24;;;;;;;0.00;0.00;;;15.90;57.80;;;;;;4221483;28;19923;-45
2021/04/14 01:38:45;;;;;;;0.05;0.05;;;15.80;58.00;;;;;;4224575;28;20552;-42
2021/04/14 01:41:07;;;;;;;0.75;0.75;;;15.70;58.20;;;;;;4208757;28;20075;-43
2021/04/14 01:43:29;;;;;;;0.00;0.00;;;15.70;58.30;;;;;;4224869;28;20078;-43
2021/04/14 01:45:50;;;;;;;0.00;0.00;;;15.90;57.80;;;;;;4223845;28;20071;-43
2021/04/14 01:48:11;;;;;;;0.00;0.00;;;16.20;57.10;;;;;;4208038;28;20131;-43
2021/04/14 01:50:33;;;;;;;0.00;0.00;;;16.40;56.50;;;;;;4210390;28;20429;-45
2021/04/14 01:52:55;;;;;;;0.00;0.00;;;16.60;56.20;;;;;;4224754;28;20063;-43
2021/04/14 01:55:20;;;;;;;0.00;0.00;;;16.60;56.20;;;;;;4218283;28;20514;-40
2021/04/14 01:57:45;;;;;;;0.80;0.80;;;16.60;56.10;;;;;;4198023;28;20040;-41
2021/04/14 02:00:14;;;;;;;0.00;0.00;;;16.60;55.90;;;;;;4207893;28;20427;-41
2021/04/14 02:02:37;;;;;;;0.00;0.00;;;16.60;55.90;;;;;;4208207;28;20109;-46
2021/04/14 02:04:58;;;;;;;0.00;0.00;;;16.60;56.00;;;;;;4209099;28;20078;-46
2021/04/14 02:07:19;;;;;;;0.00;0.00;;;16.50;56.10;;;;;;4208445;28;20131;-43
2021/04/14 02:09:40;;;;;;;0.00;0.00;;;16.40;56.40;;;;;;4208259;28;20735;-43
2021/04/14 02:12:02;;;;;;;0.00;0.00;;;16.30;56.60;;;;;;4208320;28;20101;-43
2021/04/14 02:14:23;;;;;;;0.00;0.00;;;16.20;56.90;;;;;;4208334;28;20135;-43
2021/04/14 02:16:44;;;;;;;0.52;0.52;;;16.10;57.20;;;;;;4224302;28;20609;-43
2021/04/14 02:19:05;;;;;;;0.00;0.00;;;16.10;57.40;;;;;;4224353;28;20067;-42
2021/04/14 02:21:26;;;;;;;2.20;1.02;;;16.10;57.30;;;;;;4224424;28;20055;-42
2021/04/14 02:23:49;;;;;;;0.00;0.00;;;16.10;57.20;;;;;;4224213;28;20056;-42
2021/04/14 02:26:13;;;;;;;0.00;0.00;;;16.20;57.10;;;;;;4195936;28;20056;-43
2021/04/14 02:28:36;;;;;;;0.00;0.00;;;16.40;56.70;;;;;;4206861;28;20044;-43
2021/04/14 02:30:57;;;;;;;0.00;0.00;;;16.60;55.90;;;;;;4191250;28;20396;-43
2021/04/14 02:33:19;;;;;;;0.00;0.00;;;16.90;55.40;;;;;;4195842;28;20059;-43
2021/04/14 02:35:40;;;;;;;0.00;0.00;;;16.90;55.20;;;;;;4223338;28;20057;-43
2021/04/14 02:38:01;;;;;;;0.38;0.38;;;16.90;55.20;;;;;;4207108;28;20410;-43
2021/04/14 02:40:22;;;;;;;0.00;0.00;;;16.80;56.10;;;;;;4204881;28;20044;-43
2021/04/14 02:42:44;;;;;;;0.15;0.15;;;16.70;55.60;;;;;;4223445;28;20241;-42
2021/04/14 02:45:08;;;;;;;0.00;0.00;;;16.60;56.00;;;;;;4217669;28;20051;-42
2021/04/14 02:47:29;;;;;;;0.00;0.00;;;16.60;56.10;;;;;;4207330;28;20044;-42
2021/04/14 02:49:50;;;;;;;0.00;0.00;;;16.70;55.80;;;;;;4207171;28;20053;-43
2021/04/14 02:52:11;;;;;;;;;;;16.90;55.40;;;;;;4226116;28;20120;-43
2021/04/14 02:54:31;;;;;;;0.00;0.00;;;16.90;55.20;;;;;;4185235;28;20389;-46
2021/04/14 02:56:52;;;;;;;0.10;0.10;;;16.90;55.30;;;;;;4212358;28;20040;-48
2021/04/14 02:59:13;;;;;;;0.15;0.15;;;16.80;55.50;;;;;;4210543;28;20418;-42
2021/04/14 03:01:35;;;;;;;0.00;0.00;;;16.70;55.70;;;;;;4178575;28;20047;-43
2021/04/14 03:03:57;;;;;;;0.00;0.00;;;16.60;56.00;;;;;;4193522;28;20063;-44
2021/04/14 03:06:17;;;;;;;0.00;0.00;;;16.50;56.30;;;;;;4203166;28;20478;-43
2021/04/14 03:08:39;;;;;;;0.00;0.00;;;16.60;56.20;;;;;;4210290;28;20063;-43
2021/04/14 03:11:03;;;;;;;0.00;0.00;;;16.70;55.80;;;;;;4211975;28;20559;-42
2021/04/14 03:13:25;;;;;;;0.00;0.00;;;16.80;55.40;;;;;;4227281;28;20047;-43
2021/04/14 03:15:46;;;;;;;0.00;0.00;;;16.90;55.20;;;;;;4195032;28;20441;-43
2021/04/14 03:18:09;;;;;;;0.00;0.00;;;17.00;55.00;;;;;;4212884;28;20063;-42
2021/04/14 03:20:30;;;;;;;0.00;0.00;;;17.00;54.90;;;;;;4215720;28;20185;-47
2021/04/14 03:22:56;;;;;;;0.35;0.35;;;17.00;54.90;;;;;;4226927;28;20135;-43
2021/04/14 03:25:17;;;;;;;0.00;0.00;;;16.90;55.10;;;;;;4227111;28;20081;-43
2021/04/14 03:27:37;;;;;;;0.00;0.00;;;16.80;55.40;;;;;;4227050;28;20413;-42
2021/04/14 03:29:58;;;;;;;;;;;16.60;55.60;;;;;;4210511;28;20064;-43
2021/04/14 03:32:19;;;;;;;0.00;0.00;;;16.60;55.90;;;;;;4210218;28;20392;-43
2021/04/14 03:34:41;;;;;;;0.00;0.00;;;16.50;56.10;;;;;;4211595;28;20121;-43
2021/04/14 03:37:02;;;;;;;0.00;0.00;;;16.60;55.90;;;;;;4225170;28;20040;-43
2021/04/14 03:39:23;;;;;;;;;;;16.70;55.60;;;;;;4212088;28;20585;-43
2021/04/14 03:41:44;;;;;;;0.00;0.00;;;16.80;55.00;;;;;;4226989;28;19969;-44
2021/04/14 03:44:08;;;;;;;0.00;0.00;;;16.80;54.80;;;;;;4221416;28;20565;-43
2021/04/14 03:46:29;;;;;;;0.00;0.00;;;16.80;55.00;;;;;;4193583;28;20135;-43
2021/04/14 03:48:50;;;;;;;0.00;0.00;;;16.70;55.20;;;;;;4193659;28;20123;-42
2021/04/14 03:51:12;;;;;;;5.47;0.63;;;16.60;55.60;;;;;;4193332;28;20131;-43
2021/04/14 03:53:37;;;;;;;0.00;0.00;;;16.60;55.70;;;;;;4193204;28;20406;-42
2021/04/14 03:56:00;;;;;;;0.00;0.00;;;16.70;55.40;;;;;;4205832;28;20044;-43
2021/04/14 03:58:43;;;;;;;0.00;0.00;;;16.80;55.10;;;;;;4209534;28;20575;-43
2021/04/14 04:01:06;;;;;;;0.00;0.00;;;16.90;54.90;;;;;;4226580;28;20048;-43
2021/04/14 04:03:29;;;;;;;0.00;0.00;;;16.90;55.00;;;;;;4225457;28;20043;-43
2021/04/14 04:05:50;;;;;;;0.00;0.00;;;16.80;55.20;;;;;;4197375;28;20052;-44
2021/04/14 04:08:12;;;;;;;0.00;0.00;;;16.70;55.50;;;;;;4226598;28;20043;-42
2021/04/14 04:10:33;;;;;;;0.00;0.00;;;16.60;55.70;;;;;;4225955;28;20047;-43
2021/04/14 04:12:56;;;;;;;0.00;0.00;;;16.50;56.00;;;;;;4225936;28;20059;-43
2021/04/14 04:15:17;;;;;;;0.00;0.00;;;16.70;55.60;;;;;;4201110;28;20059;-43
2021/04/14 04:17:39;;;;;;;0.00;0.00;;;17.00;55.00;;;;;;4192899;28;20068;-43
2021/04/14 04:20:00;;;;;;;0.00;0.00;;;17.10;54.50;;;;;;4216746;28;20219;-43
2021/04/14 04:22:21;;;;;;;0.00;0.00;;;17.10;54.50;;;;;;4208940;28;20110;-42
2021/04/14 04:24:43;;;;;;;0.00;0.00;;;17.00;54.50;;;;;;4225863;28;20055;-43
2021/04/14 04:27:06;;;;;;;0.00;0.00;;;17.00;54.80;;;;;;4226131;28;20561;-44
2021/04/14 04:29:26;;;;;;;0.00;0.00;;;16.80;55.10;;;;;;4225669;28;20405;-45
2021/04/14 04:31:47;;;;;;;0.00;0.00;;;16.70;55.50;;;;;;4226223;28;20093;-44
2021/04/14 04:34:08;;;;;;;0.00;0.00;;;16.60;55.90;;;;;;4225638;28;20047;-46
2021/04/14 04:36:29;;;;;;;0.10;0.10;;;16.60;56.10;;;;;;4225427;28;20101;-54
2021/04/14 04:38:50;;;;;;;0.00;0.00;;;16.70;55.70;;;;;;4226039;28;20043;-46
2021/04/14 04:41:12;;;;;;;0.00;0.00;;;16.90;55.20;;;;;;4226053;28;20135;-42
2021/04/14 04:43:33;;;;;;;0.00;0.00;;;17.00;54.90;;;;;;4223591;28;20077;-43
2021/04/14 04:45:54;;;;;;;0.00;0.00;;;17.00;54.70;;;;;;4240871;27;20066;-42
2021/04/14 04:48:15;;;;;;;0.00;0.00;;;16.90;54.80;;;;;;4209010;28;20040;-42
2021/04/14 04:50:37;;;;;;;0.30;0.30;;;16.80;55.00;;;;;;4238369;27;20039;-44
2021/04/14 04:53:01;;;;;;;0.00;0.00;;;16.70;55.40;;;;;;4243125;27;20390;-42
2021/04/14 04:55:22;;;;;;;0.08;0.08;;;16.60;55.80;;;;;;4241310;27;20035;-43
2021/04/14 04:57:46;;;;;;;0.00;0.00;;;16.40;56.10;;;;;;4242711;27;20421;-43
2021/04/14 05:00:08;;;;;;;0.10;0.10;;;16.40;56.30;;;;;;4242506;27;20051;-44
2021/04/14 05:02:29;;;;;;;0.00;0.00;;;16.60;55.80;;;;;;4240108;27;20059;-42
2021/04/14 05:04:53;;;;;;;0.00;0.00;;;16.90;55.10;;;;;;4235844;27;20051;-43
2021/04/14 05:07:14;;;;;;;0.00;0.00;;;17.10;54.60;;;;;;4222329;27;20052;-45
2021/04/14 05:09:35;;;;;;;0.00;0.00;;;17.10;54.50;;;;;;4204976;28;20690;-43
2021/04/14 05:11:56;;;;;;;0.00;0.00;;;17.10;54.80;;;;;;4209091;28;20044;-43
2021/04/14 05:14:20;;;;;;;0.00;0.00;;;17.10;55.10;;;;;;4223964;28;20101;-42
2021/04/14 05:16:41;;;;;;;0.00;0.00;;;17.00;55.30;;;;;;4216063;28;20051;-43
2021/04/14 05:19:02;;;;;;;0.00;0.00;;;16.90;55.60;;;;;;4225298;28;20074;-44
2021/04/14 05:21:23;;;;;;;0.00;0.00;;;16.90;55.80;;;;;;4222938;28;20047;-46
2021/04/14 05:23:44;;;;;;;0.05;0.05;;;16.80;55.90;;;;;;4232503;27;20066;-42
2021/04/14 05:26:05;;;;;;;0.00;0.00;;;16.70;55.80;;;;;;4240984;27;20055;-43
2021/04/14 05:28:27;;;;;;;3.63;0.32;;;16.70;55.60;;;;;;4234630;27;20780;-43
2021/04/14 05:30:49;;;;;;;0.10;0.10;;;16.60;55.70;;;;;;4198829;27;20093;-44
2021/04/14 05:33:11;;;;;;;0.00;0.00;;;16.60;55.70;;;;;;4215836;28;20054;-42
2021/04/14 05:35:33;;;;;;;0.00;0.00;;;16.50;55.80;;;;;;4218001;28;20104;-42
2021/04/14 05:37:54;;;;;;;0.00;0.00;;;16.50;55.70;;;;;;4209142;28;20467;-43
2021/04/14 05:40:16;;;;;;;0.00;0.00;;;16.40;55.90;;;;;;4224864;28;20051;-42
2021/04/14 05:42:45;;;;;;;0.00;0.00;;;16.40;55.90;;;;;;4222783;28;20036;-42
2021/04/14 05:45:12;;;;;;;0.00;0.00;;;16.30;55.90;;;;;;4224797;28;20055;-43
2021/04/14 05:47:33;;;;;;;16.98;1.00;;;16.20;56.20;;;;;;4225001;28;20035;-43
2021/04/14 05:49:54;;;;;;;0.00;0.00;;;16.10;56.20;;;;;;4226284;27;20047;-43
2021/04/14 05:52:15;;;;;;;0.00;0.00;;;16.10;56.20;;;;;;4241447;27;20047;-44
2021/04/14 05:54:36;;;;;;;;;;;16.00;56.30;;;;;;4241635;27;20131;-43
2021/04/14 05:56:57;;;;;;;0.00;0.00;;;15.90;56.40;;;;;;4241619;27;19919;-43
2021/04/14 05:59:19;;;;;;;0.00;0.00;;;15.80;56.50;;;;;;4224558;28;20052;-43
2021/04/14 06:01:43;;;;;;;0.00;0.00;;;15.70;56.70;;;;;;4224607;27;20051;-44
2021/04/14 06:04:05;;;;;;;0.00;0.00;;;15.60;56.90;;;;;;4216329;28;20801;-43
2021/04/14 06:06:27;;;;;;;0.00;0.00;;;15.60;57.10;;;;;;4208316;28;20048;-42
2021/04/14 06:08:48;;;;;;;0.00;0.00;;;15.50;57.30;;;;;;4209148;28;20150;-42
2021/04/14 06:11:08;;;;;;;0.00;0.00;;;15.40;57.40;;;;;;4203326;28;20485;-42
2021/04/14 06:13:31;;;;;;;0.00;0.00;;;15.40;57.40;;;;;;4201678;28;20575;-42
2021/04/14 06:15:51;;;;;;;0.30;0.30;;;15.30;57.40;;;;;;4204840;28;20054;-42
2021/04/14 06:18:13;;;;;;;0.00;0.00;;;15.30;57.50;;;;;;4224350;28;20063;-42
2021/04/14 06:20:35;;;;;;;0.00;0.00;;;15.20;57.50;;;;;;4224384;28;20050;-47
2021/04/14 06:23:00;;;;;;;0.03;0.03;;;15.20;58.30;;;;;;4219855;28;20043;-48
2021/04/14 06:25:22;;;;;;;0.00;0.00;;;15.40;57.40;;;;;;4218732;28;20569;-46
2021/04/14 06:27:48;;;;;;;0.10;0.10;;;15.60;56.90;;;;;;4212572;28;20111;-44
2021/04/14 06:30:11;;;;;;;0.70;0.70;;;15.80;56.30;;;;;;4197997;28;20093;-43
2021/04/14 06:32:32;;;;;;;0.00;0.00;;;15.90;56.20;;;;;;4186452;28;20080;-43
2021/04/14 06:34:54;;;;;;;0.00;0.00;;;16.00;56.10;;;;;;4205395;28;20052;-44
2021/04/14 06:37:16;;;;;;;0.20;0.20;;;16.00;56.10;;;;;;4202602;28;20048;-45
2021/04/14 06:39:38;;;;;;;0.00;0.00;;;16.00;55.80;;;;;;4223625;28;20132;-43
2021/04/14 06:42:14;;;;;;;0.00;0.00;;;15.90;55.80;;;;;;4224232;28;20047;-44
2021/04/14 06:44:57;;;;;;;0.00;0.00;;;15.90;55.70;;;;;;4225559;28;20047;-45
2021/04/14 06:47:25;;;;;;;25.55;0.90;;;15.90;55.90;;;;;;4207713;28;20143;-46
2021/04/14 06:49:51;;;;;;;0.00;0.00;;;15.80;56.20;;;;;;4209286;28;20052;-47
2021/04/14 06:52:16;;;;;;;0.05;0.05;;;15.80;56.40;;;;;;4210668;28;20503;-48
2021/04/14 06:54:47;;;;;;;0.00;0.00;;;15.70;56.50;;;;;;4219838;28;20101;-47
2021/04/14 06:57:13;;;;;;;;;;;15.70;56.50;;;;;;4208268;28;20111;-43
2021/04/14 06:59:37;;;;;;;0.00;0.00;;;15.70;56.40;;;;;;4223768;28;19923;-45
2021/04/14 07:02:04;;;;;;;0.00;0.00;;;15.60;56.40;;;;;;4219045;28;20051;-46
2021/04/14 07:04:32;;;;;;;0.00;0.00;;;15.60;56.40;;;;;;4207935;28;20063;-49
2021/04/14 07:06:56;;;;;;;0.00;0.00;;;15.60;56.40;;;;;;4210446;28;20043;-44
2021/04/14 07:09:24;;;;;;;0.00;0.00;;;15.60;56.40;;;;;;4224074;28;20044;-44
2021/04/14 07:11:46;;;;;;;0.00;0.00;;;15.60;56.30;;;;;;4223748;28;20055;-43
2021/04/14 07:14:08;;;;;;;0.00;0.00;;;15.40;56.20;;;;;;4223978;28;20497;-44
2021/04/14 07:17:19;;;;;;;0.00;0.00;;;15.40;56.40;;;;;;4216201;28;20055;-45
2021/04/14 07:20:02;;;;;;;0.00;0.00;;;15.30;56.50;;;;;;4162400;28;20814;-46
2021/04/14 07:22:33;;;;;;;0.00;0.00;;;15.30;56.50;;;;;;4166108;28;20048;-43
2021/04/14 07:24:57;;;;;;;0.52;0.52;;;15.30;56.60;;;;;;4199146;28;20040;-43
2021/04/14 07:27:28;;;;;;;0.00;0.00;;;15.30;56.60;;;;;;4191889;28;20048;-44
2021/04/14 07:29:51;;;;;;;0.00;0.00;;;15.20;56.60;;;;;;4204639;28;20151;-46
2021/04/14 07:32:24;;;;;;;0.00;0.00;;;15.20;56.50;;;;;;4196137;28;20618;-43
2021/04/14 07:35:09;;;;;;;0.00;0.00;;;15.20;56.40;;;;;;4201551;28;20052;-45
2021/04/14 07:37:38;;;;;;;1.15;0.70;;;15.20;56.30;;;;;;4222807;28;20044;-43
2021/04/14 07:40:06;;;;;;;0.00;0.00;;;15.20;56.50;;;;;;4223776;28;20174;-47
2021/04/14 07:42:39;;;;;;;0.00;0.00;;;15.20;57.30;;;;;;4210674;28;20459;-46
2021/04/14 07:45:17;;;;;;;0.00;0.00;;;15.20;56.60;;;;;;4210138;28;20048;-43
2021/04/14 07:47:43;;;;;;;0.00;0.00;;;15.10;56.60;;;;;;4217803;27;20040;-44
2021/04/14 07:50:05;;;;;;;0.00;0.00;;;15.10;56.80;;;;;;4213775;27;20158;-49
2021/04/14 07:52:29;;;;;;;0.03;0.03;;;15.10;57.10;;;;;;4210336;28;20071;-45
2021/04/14 07:54:52;;;;;;;0.00;0.00;;;15.00;57.40;;;;;;4193102;28;20067;-45
2021/04/14 07:57:24;;;;;;;0.00;0.00;;;15.00;57.90;;;;;;4196462;28;20047;-46
2021/04/14 07:59:46;;;;;;;0.00;0.00;;;14.90;58.00;;;;;;4221922;28;20048;-44
2021/04/14 08:02:11;;;;;;;0.00;0.00;;;14.90;58.10;;;;;;4193331;28;20457;-43
2021/04/14 08:04:37;;;;;;;0.00;0.00;;;14.90;58.10;;;;;;4197254;28;20608;-46
2021/04/14 08:07:13;;;;;;;0.00;0.00;;;14.90;58.20;;;;;;4207070;28;20048;-44
2021/04/14 08:09:37;;;;;;;0.70;0.70;;;14.80;58.30;;;;;;4193016;28;20048;-46
2021/04/14 08:12:06;;;;;;;0.00;0.00;;;14.80;58.20;;;;;;4214714;28;20056;-44
2021/04/14 08:14:34;;;;;;;0.00;0.00;;;14.80;58.40;;;;;;4195200;28;20475;-43
2021/04/14 08:17:02;;;;;;;0.13;0.10;;;14.80;58.40;;;;;;4223248;28;20116;-42
2021/04/14 08:19:27;;;;;;;0.30;0.30;;;14.80;58.40;;;;;;4226674;27;20078;-45
2021/04/14 08:21:57;;;;;;;0.00;0.00;;;14.70;58.40;;;;;;4193187;28;20057;-46
2021/04/14 08:24:29;;;;;;;0.00;0.00;;;14.80;58.60;;;;;;4214108;28;20039;-44
2021/04/14 08:26:53;;;;;;;0.15;0.15;;;14.70;58.40;;;;;;4203267;28;20452;-43
2021/04/14 08:29:16;;;;;;;0.43;0.35;;;14.70;58.30;;;;;;4206588;28;20055;-43
2021/04/14 08:31:46;;;;;;;2.00;1.35;;;14.70;58.30;;;;;;4209390;28;20052;-44
2021/04/14 08:34:12;;;;;;;0.00;0.00;;;14.70;58.30;;;;;;4211997;27;20048;-43
2021/04/14 08:36:41;;;;;;;0.55;0.55;;;14.70;58.40;;;;;;4243208;27;20493;-44
2021/04/14 08:39:15;;;;;;;0.20;0.20;;;14.70;58.50;;;;;;4242667;27;20439;-43
2021/04/14 08:41:36;;;;;;;0.00;0.00;;;14.70;58.40;;;;;;4208445;28;20075;-44
2021/04/14 08:44:07;;;;;;;0.00;0.00;;;14.70;58.50;;;;;;4192721;28;20059;-44
2021/04/14 08:46:33;;;;;;;0.00;0.00;;;14.70;58.40;;;;;;4209139;28;20106;-43
2021/04/14 08:48:58;;;;;;;0.00;0.00;;;14.70;58.10;;;;;;4209211;28;20072;-44
2021/04/14 08:51:22;;;;;;;0.10;0.10;;;14.70;58.10;;;;;;4195929;28;20131;-44
2021/04/14 08:53:45;;;;;;;0.00;0.00;;;14.70;58.10;;;;;;4209277;28;20141;-43
2021/04/14 08:56:07;;;;;;;0.00;0.00;;;14.70;58.10;;;;;;4192294;28;20044;-42
2021/04/14 08:58:31;;;;;;;0.00;0.00;;;14.70;58.10;;;;;;4204002;28;20048;-43
2021/04/14 09:00:53;;;;;;;0.00;0.00;;;14.60;58.20;;;;;;4196141;28;20143;-43
2021/04/14 09:03:20;;;;;;;1.33;1.17;;;14.60;58.20;;;;;;4210168;28;20486;-43
2021/04/14 09:05:44;;;;;;;0.10;0.10;;;14.60;58.20;;;;;;4205386;28;20053;-44
2021/04/14 09:08:12;;;;;;;0.00;0.00;;;14.60;58.30;;;;;;4225577;28;20066;-44
2021/04/14 09:10:38;;;;;;;0.00;0.00;;;14.60;58.50;;;;;;4225576;28;20097;-44
2021/04/14 09:13:01;;;;;;;0.00;0.00;;;14.60;58.60;;;;;;4197911;28;20063;-47
2021/04/14 09:15:23;;;;;;;0.00;0.00;;;14.60;58.60;;;;;;4210711;28;20052;-47
2021/04/14 09:17:59;;;;;;;0.00;0.00;;;14.60;58.70;;;;;;4225284;28;20078;-43
2021/04/14 09:20:23;;;;;;;0.00;0.00;;;14.60;58.60;;;;;;4208079;28;20044;-44
2021/04/14 09:22:45;;;;;;;0.00;0.00;;;14.60;58.50;;;;;;4242297;27;20051;-44
2021/04/14 09:25:17;;;;;;;;;;;14.60;58.40;;;;;;4242500;27;20047;-43
2021/04/14 09:27:51;;;;;;;0.32;0.32;;;14.60;58.20;;;;;;4242208;27;19919;-44
2021/04/14 09:30:19;;;;;;;0.00;0.00;;;14.60;58.30;;;;;;4222576;28;20043;-43
2021/04/14 09:32:52;;;;;;;0.10;0.10;;;14.60;58.40;;;;;;4223993;28;20040;-43
2021/04/14 09:35:16;;;;;;;0.15;0.15;;;14.50;58.70;;;;;;4219276;28;20074;-49
2021/04/14 09:37:37;;;;;;;0.80;0.80;;;14.50;58.60;;;;;;4191657;28;20048;-51
2021/04/14 09:40:01;;;;;;;0.00;0.00;;;14.50;58.30;;;;;;4195590;28;20036;-49
2021/04/14 09:42:32;;;;;;;0.00;0.00;;;14.50;58.20;;;;;;4208417;28;20121;-44
2021/04/14 09:44:55;;;;;;;0.00;0.00;;;14.50;57.90;;;;;;4203151;28;20051;-44
2021/04/14 09:47:33;;;;;;;0.10;0.10;;;14.50;58.10;;;;;;4208503;28;20055;-44
2021/04/14 09:49:56;;;;;;;0.00;0.00;;;14.50;58.00;;;;;;4207950;28;20055;-45
2021/04/14 09:52:25;;;;;;;0.20;0.20;;;14.50;58.20;;;;;;4208361;28;20046;-44
2021/04/14 09:54:47;;;;;;;0.40;0.40;;;14.60;58.40;;;;;;4202728;28;20130;-44
2021/04/14 09:57:16;;;;;;;0.00;0.00;;;14.60;58.30;;;;;;4205248;28;20587;-43
2021/04/14 09:59:42;;;;;;;0.00;0.00;;;14.60;58.00;;;;;;4191624;28;20566;-43
2021/04/14 10:02:07;;;;;;;0.08;0.08;;;14.60;57.70;;;;;;4213986;28;20155;-43
2021/04/14 10:04:29;;;;;;;0.00;0.00;;;14.50;57.50;;;;;;4211410;28;20051;-43
2021/04/14 10:06:55;;;;;;;0.00;0.00;;;14.60;57.60;;;;;;4215562;28;20086;-42
2021/04/14 10:09:22;;;;;;;0.00;0.00;;;14.50;57.50;;;;;;4199058;28;20075;-43
2021/04/14 10:11:45;;;;;;;0.00;0.00;;;14.50;56.80;;;;;;4208208;28;20166;-43
2021/04/14 10:14:10;;;;;;;0.00;0.00;;;14.50;56.70;;;;;;4195245;28;20053;-44
2021/04/14 10:16:32;;;;;;;0.00;0.00;;;14.50;56.80;;;;;;4190779;28;20049;-43
2021/04/14 10:19:02;;;;;;;0.00;0.00;;;14.50;56.90;;;;;;4196247;28;20079;-44
2021/04/14 10:21:24;;;;;;;0.00;0.00;;;14.50;57.10;;;;;;4214652;28;20485;-43
2021/04/14 10:23:46;;;;;;;0.63;0.63;;;14.50;56.50;;;;;;4238199;27;20043;-43
2021/04/14 10:26:13;;;;;;;0.03;0.03;;;14.50;56.10;;;;;;4224264;28;20064;-45
2021/04/14 10:28:38;;;;;;;0.10;0.10;;;14.50;55.80;;;;;;4220825;27;20482;-45
2021/04/14 10:31:07;;;;;;;0.00;0.00;;;14.50;55.80;;;;;;4201766;28;20494;-43
2021/04/14 10:33:29;;;;;;;0.00;0.00;;;14.50;55.90;;;;;;4226592;27;20043;-44
2021/04/14 10:35:51;;;;;;;0.45;0.45;;;14.50;55.90;;;;;;4241093;27;20115;-44
2021/04/14 10:38:13;;;;;;;0.85;0.85;;;14.60;56.20;;;;;;4231989;27;20134;-43
2021/04/14 10:40:37;;;;;;;0.00;0.00;;;14.60;56.50;;;;;;4206322;28;20043;-44
2021/04/14 10:43:09;;;;;;;0.00;0.00;;;14.50;56.50;;;;;;4197470;28;20064;-44
2021/04/14 10:45:30;;;;;;;0.00;0.00;;;14.50;55.90;;;;;;4190679;28;20143;-44
2021/04/14 10:47:54;;;;;;;0.00;0.00;;;14.50;56.00;;;;;;4191035;28;20702;-44
2021/04/14 10:50:24;;;;;;;0.00;0.00;;;14.50;55.90;;;;;;4215395;28;20489;-43
2021/04/14 10:52:48;;;;;;;0.00;0.00;;;14.50;55.80;;;;;;4208588;28;20058;-46
2021/04/14 10:55:14;;;;;;;0.00;0.00;;;14.50;56.00;;;;;;4224098;28;20044;-43
2021/04/14 10:57:39;;;;;;;0.00;0.00;;;14.50;56.40;;;;;;4224192;28;20043;-43
2021/04/14 11:00:05;;;;;;;0.00;0.00;;;14.50;56.10;;;;;;4224090;28;20051;-42
2021/04/14 11:02:28;;;;;;;0.10;0.10;;;14.50;55.90;;;;;;4223611;28;20509;-49
2021/04/14 11:04:51;;;;;;;0.10;0.10;;;14.50;56.40;;;;;;4229491;28;20051;-44
2021/04/14 11:07:17;;;;;;;2.35;1.48;;;14.50;57.80;;;;;;4240183;28;20422;-44
2021/04/14 11:09:43;;;;;;;3.70;1.23;;;14.50;59.30;;;;;;4241005;28;20055;-44
2021/04/14 11:12:08;;;;;;;0.75;0.47;;;14.60;58.90;;;;;;4240325;28;20046;-47
2021/04/14 11:14:32;;;;;;;0.40;0.40;;;14.60;59.30;;;;;;4244617;27;20139;-43
2021/04/14 11:16:53;;;;;;;2.40;2.25;;;14.70;59.90;;;;;;4244201;27;20512;-44
2021/04/14 11:19:15;;;;;;;;;;;14.70;61.70;;;;;;4243171;27;20100;-46
2021/04/14 11:21:36;;;;;;;3.13;2.92;;;14.80;63.60;;;;;;4227023;28;20365;-52
2021/04/14 11:24:05;;;;;;;7.55;2.28;;;14.80;63.50;;;;;;4227486;28;20097;-50
2021/04/14 11:26:26;;;;;;;3.40;2.42;;;14.80;63.10;;;;;;4227796;28;20690;-46
2021/04/14 11:28:49;;;;;;;4.38;1.65;;;14.80;61.60;;;;;;4227722;27;20105;-46
2021/04/14 11:31:12;;;;;;;0.57;0.57;;;14.90;60.80;;;;;;4225611;28;20055;-48
2021/04/14 11:33:37;;;;;;;1.42;1.42;;;14.80;62.40;;;;;;4227391;27;20059;-48
2021/04/14 11:35:58;;;;;;;1.75;0.95;;;14.90;63.10;;;;;;4227341;28;20120;-45
2021/04/14 11:38:31;;;;;;;1.20;1.20;;;14.90;62.40;;;;;;4227093;27;20852;-45
2021/04/14 11:40:53;;;;;;;26.95;5.40;;;14.90;64.00;;;;;;4227323;27;20142;-43
2021/04/14 11:43:30;;;;;;;2.13;2.03;;;14.90;65.40;;;;;;4227178;28;20587;-44
2021/04/14 11:45:59;;;;;;;7.43;2.33;;;14.90;66.30;;;;;;4226709;28;20059;-48
2021/04/14 11:48:31;;;;;;;3.72;3.47;;;14.90;66.60;;;;;;4225440;28;20497;-44
2021/04/14 11:50:52;;;;;;;1.27;1.23;;;14.90;66.80;;;;;;4226729;27;20048;-44
2021/04/14 11:53:23;;;;;;;1.42;1.40;;;14.90;67.30;;;;;;4209812;28;20097;-43
2021/04/14 11:55:44;;;;;;;0.77;0.77;;;15.00;67.10;;;;;;4223358;28;20063;-46
2021/04/14 11:58:08;;;;;;;20.58;2.33;;;15.00;65.90;;;;;;4195861;28;20052;-47
2021/04/14 12:00:38;;;;;;;4.15;2.80;;;15.10;64.00;;;;;;4204056;28;20044;-45
2021/04/14 12:03:02;;;;;;;1.70;1.60;;;15.10;62.00;;;;;;4224245;28;20062;-43
2021/04/14 12:05:26;;;;;;;1.75;1.65;;;15.10;60.60;;;;;;4225953;28;20424;-43
2021/04/14 12:07:47;;;;;;;15.10;4.38;;;15.00;60.10;;;;;;4197763;28;20056;-44
2021/04/14 12:10:09;;;;;;;2.67;2.53;;;15.00;59.70;;;;;;4209357;28;20055;-43
2021/04/14 12:12:30;;;;;;;2.22;2.13;;;15.00;61.30;;;;;;4206066;28;20502;-44
2021/04/14 12:14:52;;;;;;;6.35;4.60;;;14.90;59.70;;;;;;4226202;28;20055;-44
2021/04/14 12:17:15;;;;;;;0.88;0.88;;;14.90;59.50;;;;;;4226256;28;20478;-44
2021/04/14 12:19:36;;;;;;;1.48;1.38;;;14.90;59.10;;;;;;4225440;28;20104;-45
2021/04/14 12:21:58;;;;;;;2.53;0.68;;;14.90;58.50;;;;;;4224688;28;20125;-46
2021/04/14 12:24:20;;;;;;;4.70;1.08;;;14.80;58.60;;;;;;4208683;28;20055;-44
2021/04/14 12:26:41;;;;;;;0.00;0.00;;;14.80;58.40;;;;;;4210753;28;20625;-44
2021/04/14 12:29:02;;;;;;;1.10;0.77;;;14.80;57.80;;;;;;4210699;28;20063;-44
2021/04/14 12:31:24;;;;;;;;;;;14.80;58.10;;;;;;4221094;28;20135;-44
2021/04/14 12:33:45;;;;;;;6.80;2.92;;;14.80;57.90;;;;;;4210191;28;19923;-43